Time;durP1;ratioP1;P1;durP2;ratioP2;P2;SDS_P1;SDS_P2;PMS_P1;PMS_P2;Temp;Humidity;BMP_temperature;BMP_pressure;BME280_temperature;BME280_humidity;BME280_pressure;Samples;Min_cycle;Max_cycle;Signal;HPM_P1;HPM_P2
2021/10/18 00:00:40;;;;;;;12.48;7.40;;;;;;;7.58;69.01;97842.44;4970510;28;20076;-81
2021/10/18 00:03:05;;;;;;;9.57;6.18;;;;;;;7.58;69.24;97850.22;4954876;28;20596;-80
2021/10/18 00:05:31;;;;;;;11.35;6.80;;;;;;;7.57;69.31;97845.25;4973645;28;20037;-80
2021/10/18 00:07:56;;;;;;;12.20;6.90;;;;;;;7.54;69.03;97843.88;4973990;28;20022;-80
2021/10/18 00:10:22;;;;;;;13.35;7.28;;;;;;;7.53;68.68;97847.47;4990232;28;20057;-80
2021/10/18 00:12:47;;;;;;;13.65;7.82;;;;;;;7.52;69.19;97845.06;4989878;28;20033;-80
2021/10/18 00:15:16;;;;;;;12.45;7.60;;;;;;;7.50;68.86;97859.03;4973789;28;20072;-80
2021/10/18 00:17:41;;;;;;;13.88;7.50;;;;;;;7.56;69.24;97851.44;4970680;28;20037;-80
2021/10/18 00:20:08;;;;;;;12.52;6.97;;;;;;;7.50;68.77;97858.22;4970045;28;20030;-80
2021/10/18 00:22:34;;;;;;;12.05;6.53;;;;;;;7.55;68.79;97861.00;4963963;28;20022;-80
2021/10/18 00:24:59;;;;;;;12.38;6.70;;;;;;;7.52;68.74;97858.03;4990112;28;20034;-80
2021/10/18 00:27:25;;;;;;;10.20;6.90;;;;;;;7.48;68.51;97852.47;4970806;28;20071;-80
2021/10/18 00:29:50;;;;;;;12.20;7.47;;;;;;;7.43;68.58;97849.69;4991058;28;20033;-80
2021/10/18 00:32:15;;;;;;;12.43;7.60;;;;;;;7.38;69.30;97852.91;4989694;28;20483;-80
2021/10/18 00:34:41;;;;;;;11.18;6.72;;;;;;;7.47;68.56;97862.03;4988696;28;20382;-80
2021/10/18 00:37:06;;;;;;;9.98;6.57;;;;;;;7.24;69.05;97856.56;4989540;28;20038;-80
2021/10/18 00:39:31;;;;;;;12.98;6.80;;;;;;;7.07;69.66;97859.59;4986730;28;20037;-80
2021/10/18 00:41:57;;;;;;;12.40;7.00;;;;;;;7.02;69.77;97851.66;4986491;28;20141;-80
2021/10/18 00:44:22;;;;;;;11.35;6.95;;;;;;;6.99;70.00;97867.63;4986158;28;20525;-80
2021/10/18 00:46:48;;;;;;;9.00;5.22;;;;;;;6.95;69.98;97866.41;4980387;28;20059;-80
2021/10/18 00:49:13;;;;;;;11.85;6.70;;;;;;;7.03;69.02;97862.81;4955088;28;20015;-80
2021/10/18 00:51:38;;;;;;;9.00;5.47;;;;;;;6.94;69.42;97852.69;4969800;28;20078;-81
2021/10/18 00:54:04;;;;;;;9.73;5.50;;;;;;;6.88;69.14;97856.06;4960366;28;20037;-80
2021/10/18 00:56:30;;;;;;;9.35;5.90;;;;;;;6.86;69.44;97849.53;5005889;28;20044;-81
2021/10/18 00:58:56;;;;;;;10.30;5.93;;;;;;;6.78;69.35;97845.34;4973348;28;20195;-80
2021/10/18 01:01:22;;;;;;;9.15;6.15;;;;;;;6.74;69.87;97855.31;4989630;28;20568;-80
2021/10/18 01:03:48;;;;;;;10.55;5.80;;;;;;;6.77;69.45;97848.13;4992176;28;20101;-81
2021/10/18 01:06:16;;;;;;;11.10;6.65;;;;;;;6.78;69.95;97847.16;4994187;28;20037;-80
2021/10/18 01:08:42;;;;;;;11.25;5.85;;;;;;;6.70;69.54;97842.97;4977625;28;20029;-80
2021/10/18 01:11:07;;;;;;;10.05;6.32;;;;;;;6.65;69.52;97837.59;4978006;28;20042;-80
2021/10/18 01:13:34;;;;;;;10.35;6.25;;;;;;;6.63;69.11;97842.19;4958415;28;20065;-80
2021/10/18 01:16:02;;;;;;;11.40;6.20;;;;;;;6.63;69.68;97844.78;4958278;28;20121;-80
2021/10/18 01:18:28;;;;;;;9.73;5.88;;;;;;;6.63;69.33;97834.44;4942351;28;20022;-80
2021/10/18 01:20:54;;;;;;;10.00;5.80;;;;;;;6.82;68.73;97833.59;4973926;28;20034;-80
2021/10/18 01:23:19;;;;;;;8.55;5.20;;;;;;;6.93;68.22;97824.41;4958043;28;20038;-80
2021/10/18 01:25:45;;;;;;;8.23;5.13;;;;;;;7.04;68.07;97828.16;4957749;28;20114;-80
2021/10/18 01:28:10;;;;;;;9.50;5.40;;;;;;;7.00;67.80;97820.00;4958121;28;20041;-80
2021/10/18 01:30:39;;;;;;;9.13;4.63;;;;;;;6.80;68.20;97830.41;4957730;28;20100;-80
2021/10/18 01:33:04;;;;;;;10.95;5.65;;;;;;;6.81;68.76;97828.63;4941190;28;20034;-80
2021/10/18 01:35:30;;;;;;;9.15;5.00;;;;;;;6.80;68.68;97825.22;4977393;28;20040;-80
2021/10/18 01:37:56;;;;;;;9.48;5.57;;;;;;;6.75;68.60;97825.03;4977001;28;20104;-80
2021/10/18 01:40:22;;;;;;;8.93;5.75;;;;;;;6.72;68.29;97828.06;4960588;28;20053;-80
2021/10/18 01:42:48;;;;;;;11.40;6.15;;;;;;;6.72;68.79;97833.25;4993025;28;20053;-80
2021/10/18 01:45:15;;;;;;;11.43;6.20;;;;;;;6.65;68.98;97822.09;4976462;28;20038;-80
2021/10/18 01:47:41;;;;;;;13.48;7.68;;;;;;;6.67;69.30;97833.84;4989898;28;20042;-80
2021/10/18 01:50:08;;;;;;;11.55;6.22;;;;;;;6.67;68.89;97841.59;4973519;28;20126;-80
2021/10/18 01:52:34;;;;;;;12.10;7.47;;;;;;;6.72;68.91;97835.81;4989387;28;20026;-80
2021/10/18 01:54:59;;;;;;;14.18;8.18;;;;;;;6.71;69.22;97827.25;4973118;28;20095;-80
2021/10/18 01:57:24;;;;;;;13.77;7.50;;;;;;;6.71;69.07;97832.41;4973022;28;20108;-80
2021/10/18 01:59:50;;;;;;;12.15;6.85;;;;;;;6.71;68.86;97834.22;4997491;28;20065;-80
2021/10/18 02:02:15;;;;;;;13.80;7.10;;;;;;;6.66;69.20;97829.66;4992440;28;20038;-80
2021/10/18 02:04:41;;;;;;;14.68;7.38;;;;;;;6.68;69.52;97834.63;4992496;28;20080;-80
2021/10/18 02:07:06;;;;;;;16.25;8.15;;;;;;;6.69;69.50;97838.81;4967389;28;20108;-80
2021/10/18 02:09:31;;;;;;;12.48;7.57;;;;;;;6.71;69.14;97842.00;4989502;28;20114;-80
2021/10/18 02:11:57;;;;;;;12.07;6.80;;;;;;;6.72;69.37;97846.19;4973101;28;20053;-80
2021/10/18 02:14:22;;;;;;;15.80;8.68;;;;;;;6.70;69.09;97838.63;4957006;28;20041;-80
2021/10/18 02:16:47;;;;;;;14.80;7.90;;;;;;;6.67;69.22;97843.41;4988717;28;20034;-80
2021/10/18 02:19:13;;;;;;;13.82;7.70;;;;;;;6.64;69.53;97844.59;4956975;28;20026;-80
2021/10/18 02:21:38;;;;;;;16.45;8.05;;;;;;;6.67;69.57;97839.00;4972645;28;20455;-80
2021/10/18 02:24:04;;;;;;;11.75;6.88;;;;;;;6.68;69.44;97838.03;4990420;28;20100;-80
2021/10/18 02:26:29;;;;;;;14.30;8.10;;;;;;;6.68;69.78;97850.16;4940182;28;20057;-80
2021/10/18 02:28:55;;;;;;;11.02;6.15;;;;;;;6.72;69.58;97836.63;4972882;28;20046;-80
2021/10/18 02:31:20;;;;;;;12.50;7.40;;;;;;;6.74;69.80;97829.44;4972596;28;20033;-80
2021/10/18 02:33:46;;;;;;;12.43;7.25;;;;;;;6.73;69.34;97827.03;4972478;28;20042;-80
2021/10/18 02:36:12;;;;;;;10.43;6.78;;;;;;;6.79;69.51;97836.59;4956055;28;20045;-80
2021/10/18 02:38:39;;;;;;;12.35;7.43;;;;;;;6.74;68.79;97829.44;4988903;28;20053;-80
2021/10/18 02:41:05;;;;;;;13.73;7.43;;;;;;;6.72;68.64;97830.66;4972855;28;20038;-80
2021/10/18 02:43:30;;;;;;;12.20;7.10;;;;;;;6.68;68.19;97830.25;4956755;28;20057;-80
2021/10/18 02:45:56;;;;;;;9.23;5.68;;;;;;;6.58;68.03;97837.66;4989807;28;20034;-80
2021/10/18 02:48:21;;;;;;;10.05;6.13;;;;;;;6.49;68.16;97834.44;4972692;28;20057;-80
2021/10/18 02:50:47;;;;;;;10.65;5.22;;;;;;;6.47;68.38;97840.84;4972576;28;20041;-80
2021/10/18 02:53:12;;;;;;;9.55;5.75;;;;;;;6.52;68.19;97846.19;4989012;28;20043;-80
2021/10/18 02:55:38;;;;;;;10.10;5.68;;;;;;;6.54;67.55;97841.63;5000496;28;20099;-80
2021/10/18 02:58:03;;;;;;;10.35;5.45;;;;;;;6.51;67.61;97835.06;4975680;28;20092;-80
2021/10/18 03:00:28;;;;;;;9.00;5.38;;;;;;;6.47;67.00;97841.63;4959343;28;20535;-80
2021/10/18 03:02:54;;;;;;;10.07;5.00;;;;;;;6.42;67.73;97835.47;4991741;28;20030;-80
2021/10/18 03:05:19;;;;;;;11.15;5.20;;;;;;;6.42;67.75;97840.66;4975329;28;20488;-80
2021/10/18 03:07:50;;;;;;;11.48;5.80;;;;;;;6.41;67.69;97846.81;4959341;28;20038;-80
2021/10/18 03:10:16;;;;;;;10.60;5.95;;;;;;;6.40;67.63;97846.00;4991640;28;20034;-80
2021/10/18 03:12:41;;;;;;;12.18;6.90;;;;;;;6.42;67.64;97845.81;4974964;28;20136;-80
2021/10/18 03:15:06;;;;;;;13.35;6.75;;;;;;;6.44;67.97;97849.78;4991599;28;20033;-80
2021/10/18 03:17:35;;;;;;;13.30;6.70;;;;;;;6.34;67.57;97836.47;4975615;28;20095;-80
2021/10/18 03:20:00;;;;;;;13.73;6.63;;;;;;;6.42;67.93;97838.06;4959230;28;20061;-80
2021/10/18 03:22:26;;;;;;;11.05;6.00;;;;;;;6.40;67.52;97842.63;4991725;28;20474;-80
2021/10/18 03:24:51;;;;;;;12.48;6.70;;;;;;;6.19;68.04;97847.81;4990908;28;20088;-80
2021/10/18 03:27:17;;;;;;;13.57;6.65;;;;;;;6.07;68.56;97846.81;4991691;28;20033;-80
2021/10/18 03:29:42;;;;;;;13.38;7.00;;;;;;;6.02;69.21;97854.38;4974948;28;20034;-80
2021/10/18 03:32:07;;;;;;;12.60;6.35;;;;;;;6.03;69.15;97861.13;4991185;28;20559;-80
2021/10/18 03:34:33;;;;;;;13.15;6.50;;;;;;;5.99;68.90;97859.94;4970223;28;20038;-80
2021/10/18 03:36:58;;;;;;;13.55;6.68;;;;;;;5.98;68.98;97855.75;4955083;28;20030;-80
2021/10/18 03:39:27;;;;;;;12.70;7.45;;;;;;;5.87;69.50;97858.91;4955388;28;20384;-80
2021/10/18 03:41:52;;;;;;;14.57;7.93;;;;;;;5.96;69.63;97865.50;4971573;28;20088;-80
2021/10/18 03:44:17;;;;;;;14.20;7.22;;;;;;;5.97;68.88;97862.72;4971327;28;20034;-80
2021/10/18 03:46:43;;;;;;;13.63;7.60;;;;;;;5.97;68.99;97867.88;4987961;28;20054;-80
2021/10/18 03:49:08;;;;;;;15.75;7.70;;;;;;;5.98;69.47;97860.91;4971260;28;20038;-80
2021/10/18 03:51:33;;;;;;;13.02;7.43;;;;;;;6.03;69.58;97868.88;4971521;28;20373;-80
2021/10/18 03:53:59;;;;;;;13.40;7.20;;;;;;;6.03;69.16;97857.75;4971288;28;20629;-80
2021/10/18 03:56:24;;;;;;;14.82;7.63;;;;;;;6.10;69.35;97867.13;4987456;28;20034;-80
2021/10/18 03:58:49;;;;;;;15.52;6.72;;;;;;;6.24;68.64;97870.50;5004221;28;20091;-80
2021/10/18 04:01:15;;;;;;;12.88;6.95;;;;;;;6.25;67.95;97876.47;5004582;28;20042;-80
2021/10/18 04:03:40;;;;;;;14.40;7.35;;;;;;;6.23;68.33;97879.25;4958741;28;20022;-80
2021/10/18 04:06:06;;;;;;;13.30;7.57;;;;;;;6.26;67.98;97878.06;4958297;28;20523;-80
2021/10/18 04:08:32;;;;;;;14.57;7.03;;;;;;;6.25;68.29;97877.25;4958221;28;20046;-80
2021/10/18 04:11:01;;;;;;;13.77;7.22;;;;;;;6.28;68.31;97886.41;4971691;28;20131;-80
2021/10/18 04:13:26;;;;;;;11.88;6.00;;;;;;;6.26;68.55;97884.03;4955017;28;20509;-80
2021/10/18 04:15:52;;;;;;;14.35;6.90;;;;;;;6.22;68.33;97888.00;4954662;28;20061;-80
2021/10/18 04:18:18;;;;;;;14.30;7.50;;;;;;;6.21;67.99;97886.41;4987297;28;20030;-80
2021/10/18 04:20:44;;;;;;;11.75;7.07;;;;;;;6.22;68.04;97894.94;4970711;28;20067;-80
2021/10/18 04:23:09;;;;;;;16.27;8.43;;;;;;;6.20;67.81;97897.72;4955276;28;20023;-80
2021/10/18 04:25:34;;;;;;;11.88;7.10;;;;;;;6.17;67.74;97898.94;4971055;28;20624;-80
2021/10/18 04:28:00;;;;;;;13.95;6.82;;;;;;;6.14;67.78;97899.31;4955118;28;20109;-80
2021/10/18 04:30:25;;;;;;;16.23;7.18;;;;;;;6.09;68.17;97903.50;4971047;28;20062;-80
2021/10/18 04:32:50;;;;;;;14.13;7.32;;;;;;;6.05;68.12;97907.47;4955251;28;20038;-80
2021/10/18 04:35:16;;;;;;;16.75;9.18;;;;;;;6.02;68.40;97900.91;4954926;28;20038;-80
2021/10/18 04:37:41;;;;;;;16.10;8.25;;;;;;;6.05;68.39;97905.69;4956389;28;20668;-80
2021/10/18 04:40:07;;;;;;;15.50;8.40;;;;;;;6.12;68.64;97914.25;4958793;28;20050;-80
2021/10/18 04:42:32;;;;;;;11.02;6.10;;;;;;;6.16;68.29;97909.47;4974862;28;20030;-80
2021/10/18 04:44:58;;;;;;;16.15;7.70;;;;;;;6.15;68.83;97913.84;4990608;28;20065;-80
2021/10/18 04:47:23;;;;;;;14.93;6.93;;;;;;;6.13;68.31;97910.66;4960899;28;20052;-80
2021/10/18 04:49:49;;;;;;;17.70;7.95;;;;;;;6.15;69.00;97913.03;4994082;28;20061;-80
2021/10/18 04:52:14;;;;;;;16.38;8.13;;;;;;;6.15;69.04;97900.94;4994316;28;20505;-80
2021/10/18 04:54:40;;;;;;;14.07;7.25;;;;;;;6.21;68.81;97908.88;4977524;28;20113;-80
2021/10/18 04:57:05;;;;;;;15.75;7.90;;;;;;;6.25;69.12;97917.84;4975547;28;20484;-80
2021/10/18 04:59:30;;;;;;;13.95;6.93;;;;;;;6.23;68.95;97914.66;4977316;28;20069;-80
2021/10/18 05:01:56;;;;;;;14.95;7.80;;;;;;;6.24;68.92;97911.88;4992565;28;20125;-80
2021/10/18 05:04:21;;;;;;;15.38;7.82;;;;;;;6.24;69.05;97908.47;4993102;28;20034;-80
2021/10/18 05:06:46;;;;;;;13.43;7.97;;;;;;;6.24;68.76;97917.03;4975184;28;20021;-80
2021/10/18 05:09:12;;;;;;;14.40;7.40;;;;;;;6.25;69.08;97923.78;4957366;28;20038;-80
2021/10/18 05:11:37;;;;;;;11.98;7.07;;;;;;;6.25;68.55;97925.59;4973793;28;20031;-80
2021/10/18 05:14:03;;;;;;;11.90;6.70;;;;;;;6.23;69.10;97917.25;4977804;28;20034;-80
2021/10/18 05:16:28;;;;;;;14.32;7.60;;;;;;;6.21;69.35;97920.03;4973103;28;20044;-80
2021/10/18 05:18:53;;;;;;;16.50;8.63;;;;;;;6.23;68.84;97925.00;4973178;28;20644;-80
2021/10/18 05:21:19;;;;;;;15.90;8.23;;;;;;;6.23;69.02;97923.19;4973568;28;20100;-80
2021/10/18 05:23:44;;;;;;;14.80;7.88;;;;;;;6.28;69.53;97928.56;4989157;28;20034;-80
2021/10/18 05:26:10;;;;;;;17.08;8.20;;;;;;;6.29;69.27;97930.19;4956511;28;20072;-80
2021/10/18 05:28:35;;;;;;;17.40;8.02;;;;;;;6.34;69.27;97934.75;4973041;28;20396;-80
2021/10/18 05:31:00;;;;;;;18.33;8.60;;;;;;;6.36;69.53;97940.53;4973021;28;20365;-80
2021/10/18 05:33:26;;;;;;;15.55;8.00;;;;;;;6.38;69.61;97938.53;4973615;28;20396;-80
2021/10/18 05:35:51;;;;;;;15.52;8.07;;;;;;;6.38;68.80;97944.50;4970994;28;20023;-80
2021/10/18 05:38:20;;;;;;;16.27;8.30;;;;;;;6.28;69.17;97938.91;4990177;28;20057;-80
2021/10/18 05:40:49;;;;;;;17.30;9.15;;;;;;;6.36;69.09;97936.16;4986271;28;20025;-80
2021/10/18 05:43:15;;;;;;;13.45;6.80;;;;;;;6.40;68.85;97936.53;5009249;28;20450;-80
2021/10/18 05:45:41;;;;;;;12.77;7.00;;;;;;;6.41;68.99;97938.16;5008587;28;20113;-80
2021/10/18 05:48:06;;;;;;;12.45;6.70;;;;;;;6.37;69.21;97935.16;4985087;28;20034;-80
2021/10/18 05:50:35;;;;;;;15.38;7.47;;;;;;;6.26;69.17;97932.38;4973390;28;20494;-80
2021/10/18 05:53:00;;;;;;;14.90;7.05;;;;;;;6.29;68.99;97930.19;4973077;28;20121;-80
2021/10/18 05:55:26;;;;;;;13.50;7.18;;;;;;;6.25;68.41;97941.91;4988947;28;20105;-80
2021/10/18 05:57:54;;;;;;;12.90;6.57;;;;;;;6.22;68.79;97937.13;4972799;28;20041;-80
2021/10/18 06:00:20;;;;;;;14.85;7.43;;;;;;;6.23;68.77;97935.34;4956632;28;20034;-80
2021/10/18 06:02:47;;;;;;;13.77;6.72;;;;;;;6.18;68.91;97935.94;4975753;28;20045;-80
2021/10/18 06:05:13;;;;;;;12.35;6.65;;;;;;;6.17;68.63;97942.91;4975902;28;20484;-80
2021/10/18 06:07:38;;;;;;;12.93;7.47;;;;;;;6.10;68.64;97939.50;4984864;28;20041;-80
2021/10/18 06:10:05;;;;;;;23.67;10.73;;;;;;;6.06;69.20;97934.91;4956678;28;20066;-80
2021/10/18 06:12:30;;;;;;;17.48;9.30;;;;;;;6.13;68.74;97941.69;4973285;28;20495;-80
2021/10/18 06:14:56;;;;;;;14.93;7.82;;;;;;;6.13;69.17;97938.31;4972195;28;20112;-80
2021/10/18 06:17:21;;;;;;;15.88;8.00;;;;;;;6.19;68.83;97950.47;4975435;28;20030;-80
2021/10/18 06:19:46;;;;;;;16.00;7.88;;;;;;;6.23;68.56;97943.88;4956408;28;20085;-80
2021/10/18 06:22:12;;;;;;;15.65;8.32;;;;;;;6.22;68.26;97946.66;4956182;28;20112;-79
2021/10/18 06:24:37;;;;;;;11.00;6.35;;;;;;;6.25;68.57;97948.88;4972209;28;20026;-80
2021/10/18 06:27:03;;;;;;;15.70;8.50;;;;;;;6.24;69.40;97955.84;4972179;28;20041;-80
2021/10/18 06:29:29;;;;;;;16.20;7.07;;;;;;;6.32;68.59;97965.19;4972519;28;20112;-80
2021/10/18 06:31:54;;;;;;;14.27;7.63;;;;;;;6.41;68.69;97961.44;4956153;28;20058;-79
2021/10/18 06:34:20;;;;;;;15.77;8.70;;;;;;;6.44;68.36;97968.78;4972665;28;20057;-79
2021/10/18 06:36:45;;;;;;;17.85;8.57;;;;;;;6.44;69.11;97976.53;4972377;28;20540;-80
2021/10/18 06:39:10;;;;;;;18.65;9.82;;;;;;;6.47;68.57;97970.97;4972392;28;20029;-80
2021/10/18 06:41:36;;;;;;;24.85;12.95;;;;;;;6.55;68.51;97978.53;4972302;28;20070;-80
2021/10/18 06:44:01;;;;;;;24.88;11.30;;;;;;;6.57;68.29;97979.13;4972358;28;20030;-80
2021/10/18 06:46:26;;;;;;;29.65;12.57;;;;;;;6.56;68.76;97972.38;4971998;28;20109;-80
2021/10/18 06:48:52;;;;;;;23.55;11.75;;;;;;;6.61;68.86;97966.59;4989028;28;20046;-79
2021/10/18 06:51:17;;;;;;;21.75;11.25;;;;;;;6.65;69.15;97974.75;4985022;28;20488;-80
2021/10/18 06:53:43;;;;;;;23.05;11.10;;;;;;;6.69;69.18;97981.16;4973406;28;20081;-79
2021/10/18 06:56:08;;;;;;;24.25;11.35;;;;;;;6.72;69.00;97978.94;4988233;28;20042;-79
2021/10/18 06:58:33;;;;;;;25.15;12.93;;;;;;;6.79;69.24;97971.19;4974654;28;20037;-80
2021/10/18 07:01:00;;;;;;;27.67;14.18;;;;;;;6.87;68.85;97983.13;4990339;28;20133;-80
2021/10/18 07:03:26;;;;;;;29.48;14.07;;;;;;;6.90;68.77;97978.31;5007215;28;20550;-80
2021/10/18 07:05:51;;;;;;;33.10;15.98;;;;;;;6.99;69.47;97985.91;4990592;28;20053;-80
2021/10/18 07:08:17;;;;;;;22.27;11.00;;;;;;;7.04;68.55;97988.69;4990623;28;20101;-80
2021/10/18 07:10:43;;;;;;;21.25;10.85;;;;;;;7.10;68.43;97996.44;4991358;28;20128;-80
2021/10/18 07:13:09;;;;;;;21.00;10.68;;;;;;;7.20;69.24;98001.22;4974755;28;20404;-80
2021/10/18 07:15:38;;;;;;;22.13;11.50;;;;;;;7.18;68.72;98000.63;4990657;28;20025;-80
2021/10/18 07:18:04;;;;;;;25.83;12.90;;;;;;;7.30;68.80;98004.19;4990806;28;20037;-80
2021/10/18 07:20:30;;;;;;;25.27;13.27;;;;;;;7.27;68.86;98007.19;4990758;28;20455;-80
2021/10/18 07:22:58;;;;;;;23.02;12.30;;;;;;;7.39;69.28;98007.34;4990621;28;20030;-80
2021/10/18 07:25:24;;;;;;;25.75;13.10;;;;;;;7.50;68.80;98011.09;4989993;28;20026;-80
2021/10/18 07:27:50;;;;;;;28.40;16.25;;;;;;;7.60;68.48;98016.66;5008784;28;20386;-80
2021/10/18 07:30:15;;;;;;;48.85;23.02;;;;;;;7.67;68.29;98007.06;4974666;28;20026;-80
2021/10/18 07:32:43;;;;;;;40.03;21.17;;;;;;;7.85;68.23;98010.81;4990824;28;20579;-80
2021/10/18 07:35:10;;;;;;;48.78;25.42;;;;;;;7.96;68.17;98012.75;4990247;28;20089;-80
2021/10/18 07:37:35;;;;;;;46.22;22.65;;;;;;;8.13;68.82;98012.28;4990620;28;20124;-80
2021/10/18 07:40:00;;;;;;;46.97;24.13;;;;;;;8.22;69.02;98021.41;4989864;28;20117;-80
2021/10/18 07:42:26;;;;;;;48.05;19.77;;;;;;;8.31;68.81;98014.97;4989920;28;20038;-80
2021/10/18 07:44:53;;;;;;;31.33;16.33;;;;;;;8.49;68.80;98023.88;4989853;28;20390;-80
2021/10/18 07:47:19;;;;;;;29.48;15.60;;;;;;;8.64;67.94;98019.19;4990621;28;20077;-80
2021/10/18 07:49:45;;;;;;;26.67;14.07;;;;;;;8.82;67.60;98015.84;4990879;28;20056;-80
2021/10/18 07:52:13;;;;;;;24.05;13.15;;;;;;;8.98;67.17;98017.13;4974241;28;20030;-80
2021/10/18 07:54:40;;;;;;;24.30;13.63;;;;;;;9.17;65.84;98017.97;4989929;28;20400;-80
2021/10/18 07:57:06;;;;;;;28.58;13.93;;;;;;;9.36;65.75;98014.38;4990159;28;20034;-80
2021/10/18 07:59:34;;;;;;;22.45;11.77;;;;;;;9.38;65.85;98020.16;4990277;28;20092;-80
2021/10/18 08:02:00;;;;;;;22.40;12.10;;;;;;;9.45;66.26;98020.09;5004987;28;20038;-80
2021/10/18 08:04:26;;;;;;;20.25;11.90;;;;;;;9.65;65.63;98024.28;4973521;28;20097;-80
2021/10/18 08:06:51;;;;;;;17.70;10.52;;;;;;;9.65;65.15;98026.91;4974161;28;20057;-80
2021/10/18 08:09:17;;;;;;;15.73;9.25;;;;;;;9.64;65.02;98017.50;4972701;28;20034;-80
2021/10/18 08:11:42;;;;;;;15.88;8.90;;;;;;;9.72;65.82;98022.41;4955023;28;20038;-79
2021/10/18 08:14:07;;;;;;;16.65;9.90;;;;;;;9.88;66.03;98024.41;4974728;28;20536;-80
2021/10/18 08:16:33;;;;;;;16.10;8.73;;;;;;;10.01;66.28;98022.69;4974036;28;20038;-80
2021/10/18 08:18:58;;;;;;;15.40;9.20;;;;;;;10.10;65.98;98026.56;4991212;28;20033;-80
2021/10/18 08:21:24;;;;;;;15.93;9.80;;;;;;;10.18;66.46;98025.44;4958273;28;20026;-80
2021/10/18 08:23:50;;;;;;;16.27;9.32;;;;;;;10.28;66.54;98029.13;4974608;28;20054;-80
2021/10/18 08:26:15;;;;;;;15.60;9.35;;;;;;;10.43;66.36;98020.13;4989854;28;20562;-80
2021/10/18 08:28:41;;;;;;;15.85;9.60;;;;;;;10.63;66.51;98022.47;4975004;28;20034;-80
2021/10/18 08:31:06;;;;;;;15.75;9.52;;;;;;;10.81;67.01;98029.38;4991313;28;20057;-80
2021/10/18 08:33:31;;;;;;;14.90;10.32;;;;;;;10.99;68.95;98031.91;4993723;28;20038;-80
2021/10/18 08:35:58;;;;;;;15.93;9.57;;;;;;;11.18;67.41;98024.00;4993124;28;20498;-80
2021/10/18 08:38:47;;;;;;;15.82;9.75;;;;;;;11.38;66.15;98029.66;4993734;28;20044;-80
2021/10/18 08:46:08;;;;;;;15.00;9.73;;;;;;;11.55;67.32;98049.78;5009823;28;20411;-80
2021/10/18 08:48:34;;;;;;;13.02;7.72;;;;;;;11.69;64.46;98042.53;4993896;28;20472;-80
2021/10/18 08:50:59;;;;;;;13.45;8.40;;;;;;;11.77;64.85;98045.59;4984039;28;20084;-80
2021/10/18 08:53:25;;;;;;;13.15;8.40;;;;;;;11.66;65.24;98043.00;5005412;28;20104;-80
2021/10/18 08:55:50;;;;;;;14.57;9.02;;;;;;;11.62;66.09;98040.84;4976217;28;20466;-81
2021/10/18 08:58:17;;;;;;;12.15;8.00;;;;;;;11.64;66.38;98035.41;4991100;28;20022;-80
2021/10/18 09:00:53;;;;;;;11.52;7.82;;;;;;;11.54;66.50;98046.41;4992860;28;20038;-80
2021/10/18 09:03:26;;;;;;;13.07;7.95;;;;;;;11.65;66.13;98044.78;5009554;28;20442;-81
2021/10/18 09:06:08;;;;;;;13.98;9.55;;;;;;;11.44;67.46;98048.78;4991073;28;20030;-80
2021/10/18 09:08:51;;;;;;;11.55;7.78;;;;;;;11.54;67.51;98054.22;5015199;28;20501;-80
2021/10/18 09:11:24;;;;;;;13.68;8.75;;;;;;;11.68;66.94;98048.78;4996188;28;20095;-80
2021/10/18 09:13:53;;;;;;;12.73;8.60;;;;;;;11.79;67.06;98059.19;4979429;28;20029;-80
2021/10/18 09:16:45;;;;;;;14.07;9.77;;;;;;;11.84;67.46;98055.09;5009960;28;20060;-80
2021/10/18 09:19:25;;;;;;;14.30;9.15;;;;;;;11.96;66.54;98048.88;4977919;28;20041;-80
2021/10/18 09:21:54;;;;;;;13.82;8.65;;;;;;;12.18;65.91;98051.63;5009449;28;20056;-81
2021/10/18 09:24:29;;;;;;;12.60;9.05;;;;;;;12.08;66.12;98056.66;4991435;28;20022;-81
2021/10/18 09:26:56;;;;;;;12.70;8.98;;;;;;;12.26;65.75;98055.69;5010454;28;20382;-81
2021/10/18 09:29:21;;;;;;;12.20;8.70;;;;;;;12.28;65.96;98060.66;4959468;28;20026;-81
2021/10/18 09:31:58;;;;;;;12.77;8.65;;;;;;;12.08;66.65;98056.66;4982286;28;20039;-81
2021/10/18 09:34:30;;;;;;;13.70;10.15;;;;;;;12.28;67.01;98045.78;4972858;28;20034;-81
2021/10/18 09:37:08;;;;;;;14.10;10.20;;;;;;;12.52;66.73;98046.47;4973267;28;20121;-81
2021/10/18 09:39:37;;;;;;;14.07;9.32;;;;;;;12.78;66.15;98054.75;4988981;28;20105;-81
2021/10/18 09:42:05;;;;;;;11.48;8.55;;;;;;;12.84;65.13;98055.63;4956839;28;20034;-81
2021/10/18 10:53:13;;;;;;;;;;;;;;;15.68;59.04;98042.66;4990959;28;20095;-81
2021/10/18 10:55:39;;;;;;;6.65;5.65;;;;;;;16.19;57.51;98029.69;5006595;28;19952;-81
2021/10/18 10:58:52;;;;;;;6.82;5.20;;;;;;;15.39;58.59;98024.66;4983583;28;20550;-81
2021/10/18 11:01:39;;;;;;;6.28;4.75;;;;;;;16.06;56.26;98022.31;4991801;28;20030;-81
2021/10/18 11:04:35;;;;;;;5.45;4.53;;;;;;;16.05;57.27;98020.72;4997166;28;20042;-81
2021/10/18 11:07:13;;;;;;;9.10;5.30;;;;;;;16.27;57.37;98026.56;4999132;28;20506;-81
2021/10/18 11:09:50;;;;;;;6.20;5.60;;;;;;;16.18;57.49;98007.09;4997663;28;20506;-81
2021/10/18 11:12:41;;;;;;;6.93;5.95;;;;;;;16.65;55.71;98013.19;4999638;28;20037;-81
2021/10/18 11:15:12;;;;;;;5.70;4.78;;;;;;;16.73;55.78;98014.53;4978834;28;20041;-81
2021/10/18 11:17:51;;;;;;;5.05;4.10;;;;;;;17.17;54.55;98016.59;4978360;28;20030;-81
2021/10/18 11:20:21;;;;;;;7.22;5.22;;;;;;;17.31;53.88;98022.91;4980980;28;20069;-81
2021/10/18 11:22:49;;;;;;;6.55;5.35;;;;;;;17.68;53.33;98013.81;4965151;28;20030;-81
2021/10/18 11:25:20;;;;;;;5.22;4.63;;;;;;;17.58;52.39;98005.97;4995259;28;20168;-81
2021/10/18 11:27:53;;;;;;;5.75;4.80;;;;;;;18.08;51.42;98009.47;4984553;28;20029;-82
2021/10/18 11:30:22;;;;;;;5.63;4.75;;;;;;;18.61;51.11;98005.41;4990217;28;20403;-81
2021/10/18 11:33:14;;;;;;;5.35;4.82;;;;;;;18.96;50.20;98004.34;4990323;28;20711;-81
2021/10/18 11:35:40;;;;;;;6.05;5.40;;;;;;;18.49;50.78;97996.00;5003287;28;20049;-82
2021/10/18 11:38:15;;;;;;;5.32;4.43;;;;;;;19.30;49.47;97981.59;5006558;28;20065;-82
2021/10/18 11:40:44;;;;;;;4.03;3.63;;;;;;;19.76;48.08;97981.06;4989943;28;20041;-82
2021/10/18 11:43:19;;;;;;;4.50;4.10;;;;;;;20.67;46.27;97980.03;4990356;28;20414;-82
2021/10/18 11:45:46;;;;;;;4.10;3.70;;;;;;;20.86;45.73;97986.03;5005712;28;20038;-82
2021/10/18 11:48:20;;;;;;;4.43;3.80;;;;;;;20.85;45.56;97995.03;4972314;28;20362;-82
2021/10/18 11:50:52;;;;;;;4.40;4.00;;;;;;;20.53;45.70;97998.47;4997184;28;20067;-81
2021/10/18 11:53:18;;;;;;;5.13;4.63;;;;;;;20.58;45.62;97990.47;4955846;28;20046;-82
2021/10/18 11:55:49;;;;;;;4.10;3.70;;;;;;;20.51;45.49;97990.03;4968034;28;20045;-81
2021/10/18 11:58:24;;;;;;;4.97;4.57;;;;;;;20.31;45.75;97997.22;4984452;28;20026;-81
2021/10/18 12:00:56;;;;;;;4.50;3.40;;;;;;;20.21;45.37;97992.84;4973691;28;20037;-82
2021/10/18 12:03:22;;;;;;;4.30;3.60;;;;;;;19.95;46.00;97975.78;4987495;28;20033;-81
2021/10/18 12:05:49;;;;;;;4.47;4.05;;;;;;;19.17;48.36;97975.88;4971648;28;20037;-81
2021/10/18 12:08:22;;;;;;;5.85;4.45;;;;;;;18.33;50.55;97971.63;4977518;28;20041;-82
2021/10/18 12:10:49;;;;;;;6.25;4.95;;;;;;;18.00;51.60;97977.63;4986383;28;20081;-81
2021/10/18 12:13:18;;;;;;;5.55;5.00;;;;;;;17.76;51.81;97975.59;4953964;28;20022;-81
2021/10/18 12:15:49;;;;;;;5.35;4.68;;;;;;;17.79;51.69;97975.06;4986370;28;20035;-82
2021/10/18 12:18:21;;;;;;;5.80;4.95;;;;;;;17.68;51.90;97969.03;4972924;28;20092;-82
2021/10/18 12:20:49;;;;;;;7.00;5.07;;;;;;;17.72;51.61;97978.00;4989388;28;20034;-82
2021/10/18 12:23:38;;;;;;;6.70;4.93;;;;;;;17.22;53.21;97964.75;4972203;28;20278;-81
2021/10/18 12:26:10;;;;;;;7.85;5.57;;;;;;;17.37;52.41;97958.63;4969775;28;20065;-82
2021/10/18 12:28:40;;;;;;;6.80;5.05;;;;;;;17.15;53.22;97969.53;4969788;28;20030;-82
2021/10/18 12:31:07;;;;;;;9.23;6.18;;;;;;;17.15;53.77;97972.16;4972752;28;20088;-81
2021/10/18 12:33:35;;;;;;;7.53;6.30;;;;;;;17.06;53.94;97972.97;4973333;28;20041;-81
2021/10/18 12:36:02;;;;;;;7.85;6.38;;;;;;;17.06;53.90;97968.47;4987354;28;20038;-81
2021/10/18 12:38:29;;;;;;;7.75;6.28;;;;;;;16.97;53.73;97968.22;5005161;28;20041;-81
2021/10/18 12:41:15;;;;;;;8.20;6.30;;;;;;;16.74;54.20;97974.00;4972955;28;20037;-81
2021/10/18 12:43:40;;;;;;;9.45;6.95;;;;;;;16.80;54.57;97965.84;4988206;28;20099;-81
2021/10/18 12:46:26;;;;;;;7.55;6.45;;;;;;;16.60;54.28;97976.38;4984977;28;20153;-81